createdAt,value
2023-02-05T00:00:25.935Z,8.90
2023-02-05T00:02:54.937Z,7.50
2023-02-05T00:05:23.542Z,10.67
2023-02-05T00:07:54.255Z,6.17
2023-02-05T00:10:23.144Z,6.97
2023-02-05T00:12:52.546Z,8.90
2023-02-05T00:15:21.914Z,7.77
2023-02-05T00:17:50.778Z,8.07
2023-02-05T00:20:20.157Z,6.77
2023-02-05T00:22:48.646Z,8.80
2023-02-05T00:25:20.856Z,7.23
2023-02-05T00:27:50.019Z,7.03
2023-02-05T00:30:19.044Z,9.77
2023-02-05T00:32:47.781Z,6.17
2023-02-05T00:35:16.963Z,10.83
2023-02-05T00:37:46.430Z,4.70
2023-02-05T00:40:15.185Z,10.37
2023-02-05T00:42:45.552Z,8.50
2023-02-05T00:45:14.638Z,9.63
2023-02-05T00:47:43.637Z,10.17
2023-02-05T00:50:12.720Z,9.23
2023-02-05T00:52:41.976Z,7.50
2023-02-05T00:55:10.890Z,7.27
2023-02-05T00:57:40.019Z,7.30
2023-02-05T01:00:13.283Z,8.77
2023-02-05T01:02:43.102Z,9.60
2023-02-05T01:05:12.019Z,11.43
2023-02-05T01:07:41.118Z,10.40
2023-02-05T01:10:10.489Z,15.70
2023-02-05T01:12:39.896Z,13.07
2023-02-05T01:15:13.832Z,9.50
2023-02-05T01:17:43.114Z,14.43
2023-02-05T01:20:14.367Z,11.20
2023-02-05T01:22:44.131Z,15.77
2023-02-05T01:25:12.875Z,11.03
2023-02-05T01:27:41.981Z,10.40
2023-02-05T01:30:13.847Z,8.03
2023-02-05T01:32:43.614Z,12.80
2023-02-05T01:35:12.430Z,7.17
2023-02-05T01:37:42.040Z,9.30
2023-02-05T01:40:15.608Z,8.90
2023-02-05T01:42:45.372Z,11.00
2023-02-05T01:45:52.294Z,7.37
2023-02-05T01:48:28.652Z,10.80
2023-02-05T01:51:01.168Z,15.73
2023-02-05T01:53:34.906Z,10.20
2023-02-05T01:56:07.698Z,13.20
2023-02-05T01:58:42.338Z,8.10
2023-02-05T02:01:12.064Z,10.63
2023-02-05T02:03:42.862Z,6.83
2023-02-05T02:06:13.016Z,10.57
2023-02-05T02:08:43.526Z,13.97
2023-02-05T02:11:17.584Z,7.77
2023-02-05T02:13:48.246Z,8.90
2023-02-05T02:16:18.272Z,12.00
2023-02-05T02:18:49.143Z,11.53
2023-02-05T02:21:44.137Z,8.03
2023-02-05T02:24:32.141Z,7.33
2023-02-05T02:27:14.558Z,11.73
2023-02-05T02:29:53.116Z,8.20
2023-02-05T02:32:29.990Z,12.33
2023-02-05T02:35:07.101Z,7.23
2023-02-05T02:37:46.724Z,13.13
2023-02-05T02:40:20.870Z,11.37
2023-02-05T02:42:56.928Z,7.57
2023-02-05T02:45:31.254Z,10.07
2023-02-05T02:48:02.390Z,9.40
2023-02-05T02:50:35.742Z,9.00
2023-02-05T02:53:10.176Z,11.83
2023-02-05T02:55:43.925Z,13.13
2023-02-05T02:58:18.166Z,12.00
2023-02-05T03:00:50.412Z,7.23
2023-02-05T03:03:24.729Z,7.17
2023-02-05T03:05:55.534Z,16.83
2023-02-05T03:08:28.501Z,8.47
2023-02-05T03:11:03.626Z,11.60
2023-02-05T03:13:33.938Z,10.10
2023-02-05T03:16:07.203Z,11.03
2023-02-05T03:18:36.796Z,10.93
2023-02-05T03:21:10.186Z,11.27
2023-02-05T03:23:39.003Z,15.67
2023-02-05T03:26:21.289Z,8.47
2023-02-05T03:28:50.806Z,18.70
2023-02-05T03:31:25.004Z,14.90
2023-02-05T03:34:06.694Z,20.10
2023-02-05T03:36:45.994Z,18.87
2023-02-05T03:39:27.036Z,14.30
2023-02-05T03:42:07.153Z,20.47
2023-02-05T03:45:01.060Z,12.60
2023-02-05T03:47:46.084Z,13.23
2023-02-05T03:50:24.149Z,15.63
2023-02-05T03:52:59.373Z,7.70
2023-02-05T03:55:33.268Z,12.70
2023-02-05T03:58:08.339Z,10.70
2023-02-05T04:00:38.519Z,15.73
2023-02-05T04:03:09.049Z,10.80
2023-02-05T04:05:39.497Z,8.93
2023-02-05T04:08:09.113Z,9.63
2023-02-05T04:10:45.180Z,9.67
2023-02-05T04:13:15.256Z,9.00
2023-02-05T04:15:45.860Z,10.70
2023-02-05T04:18:19.474Z,9.37
2023-02-05T04:20:51.081Z,8.03
2023-02-05T04:23:25.588Z,7.97
2023-02-05T04:25:56.175Z,8.90
2023-02-05T04:28:33.325Z,8.70
2023-02-05T04:31:07.980Z,9.67
2023-02-05T04:33:38.995Z,8.33
2023-02-05T04:36:12.831Z,10.77
2023-02-05T04:38:42.362Z,6.80
2023-02-05T04:41:11.467Z,7.07
2023-02-05T04:43:40.526Z,8.77
2023-02-05T04:46:10.621Z,9.00
2023-02-05T04:48:41.805Z,10.93
2023-02-05T04:51:11.798Z,15.17
2023-02-05T04:53:41.132Z,8.57
2023-02-05T04:56:13.097Z,7.80
2023-02-05T04:58:42.223Z,13.10
2023-02-05T05:01:14.489Z,10.80
2023-02-05T05:03:46.075Z,11.83
2023-02-05T05:06:16.269Z,9.97
2023-02-05T05:08:45.746Z,12.03
2023-02-05T05:11:18.361Z,12.53
2023-02-05T05:13:47.413Z,9.87
2023-02-05T05:16:16.830Z,10.70
2023-02-05T05:18:47.534Z,7.70
2023-02-05T05:21:16.529Z,9.43
2023-02-05T05:23:45.426Z,9.47
2023-02-05T05:26:15.111Z,10.10
2023-02-05T05:28:43.758Z,12.53
2023-02-05T05:31:17.049Z,9.47
2023-02-05T05:33:47.572Z,16.63
2023-02-05T05:36:16.953Z,11.33
2023-02-05T05:38:45.800Z,7.77
2023-02-05T05:41:37.841Z,15.50
2023-02-05T05:44:07.177Z,12.37
2023-02-05T05:46:36.347Z,10.33
2023-02-05T05:49:06.783Z,14.73
2023-02-05T05:51:35.558Z,8.43
2023-02-05T05:54:04.511Z,12.50
2023-02-05T05:56:33.427Z,9.47
2023-02-05T05:59:02.318Z,9.70
2023-02-05T06:01:31.221Z,12.13
2023-02-05T06:04:02.938Z,11.23
2023-02-05T06:06:34.423Z,10.33
2023-02-05T06:09:06.509Z,8.20
2023-02-05T06:11:35.549Z,14.67
2023-02-05T06:14:04.745Z,15.67
2023-02-05T06:16:33.911Z,26.53
2023-02-05T06:19:02.833Z,24.83
2023-02-05T06:21:31.644Z,19.63
2023-02-05T06:24:02.293Z,20.90
2023-02-05T06:26:31.370Z,12.43
2023-02-05T06:29:03.436Z,14.23
2023-02-05T06:41:36.313Z,11.43
2023-02-05T07:02:37.779Z,11.97
2023-02-05T07:21:45.224Z,11.83
2023-02-05T07:24:13.969Z,11.23
2023-02-05T07:26:45.581Z,12.97
2023-02-05T07:29:15.348Z,13.90
2023-02-05T07:31:44.868Z,11.47
2023-02-05T07:34:13.994Z,14.17
2023-02-05T07:36:44.784Z,10.80
2023-02-05T07:39:14.154Z,14.50
2023-02-05T07:41:43.276Z,12.23
2023-02-05T07:44:24.536Z,13.93
2023-02-05T07:46:53.613Z,15.07
2023-02-05T07:49:22.601Z,16.07
2023-02-05T07:51:52.770Z,11.33
2023-02-05T07:54:22.614Z,14.67
2023-02-05T07:56:53.347Z,16.53
2023-02-05T07:59:22.789Z,15.13
2023-02-05T08:01:51.964Z,13.40
2023-02-05T08:04:21.770Z,10.67
2023-02-05T08:06:53.379Z,16.47
2023-02-05T08:09:25.044Z,18.30
2023-02-05T08:11:58.882Z,13.30
2023-02-05T08:14:27.846Z,14.37
2023-02-05T08:16:57.039Z,18.73
2023-02-05T08:19:27.219Z,22.57
2023-02-05T08:22:00.944Z,19.80
2023-02-05T08:24:29.879Z,14.50
2023-02-05T08:26:58.889Z,19.63
2023-02-05T08:29:28.438Z,16.97
2023-02-05T08:31:57.998Z,17.43
2023-02-05T08:34:27.243Z,13.47
2023-02-05T08:36:58.147Z,18.90
2023-02-05T08:39:28.897Z,12.63
2023-02-05T08:41:58.256Z,16.07
2023-02-05T08:44:27.574Z,16.00
2023-02-05T08:46:57.190Z,16.33
2023-02-05T08:49:26.787Z,14.47
2023-02-05T08:51:56.621Z,14.17
2023-02-05T08:54:25.678Z,19.23
2023-02-05T08:57:01.490Z,23.50
2023-02-05T08:59:30.722Z,25.33
2023-02-05T09:02:10.331Z,17.93
2023-02-05T09:04:43.672Z,17.67
2023-02-05T09:07:18.049Z,13.13
2023-02-05T09:09:46.950Z,16.77
2023-02-05T09:12:17.407Z,12.87
2023-02-05T09:14:46.430Z,11.63
2023-02-05T09:17:15.586Z,13.60
2023-02-05T09:19:45.063Z,10.87
2023-02-05T09:22:14.592Z,11.13
2023-02-05T09:24:44.084Z,9.37
2023-02-05T09:27:14.750Z,9.63
2023-02-05T09:29:48.176Z,8.52
2023-02-05T09:32:27.275Z,9.57
2023-02-05T09:34:56.511Z,12.07
2023-02-05T09:37:28.111Z,8.38
2023-02-05T09:40:20.500Z,8.32
2023-02-05T09:42:54.392Z,7.18
2023-02-05T09:45:40.073Z,6.53
2023-02-05T09:48:33.584Z,7.38
2023-02-05T09:51:07.094Z,5.30
2023-02-05T09:53:43.654Z,5.50
2023-02-05T09:56:16.668Z,6.30
2023-02-05T09:58:50.057Z,3.90
2023-02-05T10:01:26.224Z,5.40
2023-02-05T10:04:02.055Z,3.93
2023-02-05T10:07:01.939Z,5.67
2023-02-05T10:10:00.491Z,7.40
2023-02-05T10:12:43.815Z,3.87
2023-02-05T10:15:26.150Z,4.83
2023-02-05T10:18:08.029Z,3.40
2023-02-05T10:20:57.306Z,3.00
2023-02-05T10:23:45.559Z,3.57
2023-02-05T10:26:16.318Z,3.20
2023-02-05T10:29:10.757Z,2.20
2023-02-05T10:31:44.557Z,2.57
2023-02-05T10:34:32.492Z,3.47
2023-02-05T10:37:03.902Z,3.07
2023-02-05T10:39:33.495Z,2.60
2023-02-05T10:42:08.671Z,2.37
2023-02-05T10:44:43.251Z,9.63
2023-02-05T10:47:16.154Z,2.13
2023-02-05T10:49:52.092Z,1.27
2023-02-05T10:52:24.135Z,2.77
2023-02-05T10:54:53.541Z,2.73
2023-02-05T10:57:24.738Z,3.30
2023-02-05T10:59:57.662Z,2.57
2023-02-05T11:02:33.433Z,8.23
2023-02-05T11:05:08.446Z,2.30
2023-02-05T11:07:43.180Z,6.37
2023-02-05T11:10:19.389Z,3.20
2023-02-05T11:12:51.361Z,3.83
2023-02-05T11:15:24.289Z,6.00
2023-02-05T11:17:56.647Z,3.37
2023-02-05T11:20:38.997Z,2.40
2023-02-05T11:23:15.132Z,3.77
2023-02-05T11:25:52.695Z,2.77
2023-02-05T11:28:29.012Z,5.93
2023-02-05T11:31:00.930Z,3.47
2023-02-05T11:33:33.050Z,3.67
2023-02-05T11:36:07.719Z,7.30
2023-02-05T11:38:45.402Z,6.57
2023-02-05T11:41:17.293Z,8.53
2023-02-05T11:43:51.162Z,2.87
2023-02-05T11:46:23.168Z,3.90
2023-02-05T11:48:58.333Z,4.00
2023-02-05T11:51:45.046Z,3.73
2023-02-05T11:54:22.148Z,2.40
2023-02-05T11:57:24.810Z,3.40
2023-02-05T11:59:58.715Z,2.80
2023-02-05T12:02:34.053Z,4.90
2023-02-05T12:05:10.193Z,4.30
2023-02-05T12:07:47.771Z,5.10
2023-02-05T12:10:19.754Z,3.97
2023-02-05T12:13:02.189Z,4.37
2023-02-05T12:15:39.627Z,4.63
2023-02-05T12:18:23.092Z,4.10
2023-02-05T12:21:11.029Z,3.30
2023-02-05T12:24:12.859Z,5.30
2023-02-05T12:26:45.195Z,13.03
2023-02-05T12:29:40.413Z,6.57
2023-02-05T12:32:24.293Z,4.60
2023-02-05T12:35:10.988Z,3.57
2023-02-05T12:37:49.281Z,4.17
2023-02-05T12:40:37.870Z,4.33
2023-02-05T12:43:40.787Z,7.17
2023-02-05T12:46:30.144Z,4.93
2023-02-05T12:49:17.039Z,3.63
2023-02-05T12:52:07.647Z,12.20
2023-02-05T12:54:48.789Z,5.87
2023-02-05T12:57:23.023Z,3.63
2023-02-05T12:59:59.323Z,5.33
2023-02-05T13:02:36.079Z,5.87
2023-02-05T13:05:18.092Z,4.63
2023-02-05T13:07:55.728Z,3.87
2023-02-05T13:10:35.627Z,5.13
2023-02-05T13:13:13.623Z,4.23
2023-02-05T13:15:45.736Z,6.57
2023-02-05T13:18:22.168Z,7.30
2023-02-05T13:21:14.106Z,7.33
2023-02-05T13:24:01.736Z,6.00
2023-02-05T13:26:51.013Z,5.37
2023-02-05T13:29:23.656Z,3.43
2023-02-05T13:31:57.095Z,5.97
2023-02-05T13:34:30.810Z,4.23
2023-02-05T13:37:21.099Z,7.70
2023-02-05T13:40:16.258Z,3.00
2023-02-05T13:43:07.139Z,4.73
2023-02-05T13:46:15.119Z,6.07
2023-02-05T13:49:32.324Z,5.43
2023-02-05T13:52:46.406Z,3.83
2023-02-05T13:55:49.454Z,4.60
2023-02-05T13:58:27.560Z,4.73
2023-02-05T14:01:03.631Z,4.43
2023-02-05T14:03:43.252Z,3.67
2023-02-05T14:06:23.590Z,4.23
2023-02-05T14:09:00.020Z,4.93
2023-02-05T14:11:30.353Z,4.60
2023-02-05T14:14:31.049Z,3.53
2023-02-05T14:17:01.981Z,5.13
2023-02-05T14:19:58.771Z,6.33
2023-02-05T14:22:46.717Z,4.50
2023-02-05T14:26:02.579Z,6.07
2023-02-05T14:28:52.726Z,4.10
2023-02-05T14:31:50.874Z,5.40
2023-02-05T14:34:52.820Z,5.40
2023-02-05T14:37:48.227Z,6.83
2023-02-05T14:40:41.556Z,3.13
2023-02-05T14:43:18.465Z,4.83
2023-02-05T14:45:50.712Z,4.17
2023-02-05T14:48:28.029Z,5.17
2023-02-05T14:51:08.197Z,4.67
2023-02-05T14:53:40.244Z,5.77
2023-02-05T14:56:10.003Z,4.13
2023-02-05T14:58:45.192Z,5.20
2023-02-05T15:01:45.612Z,4.27
2023-02-05T15:04:40.765Z,5.47
2023-02-05T15:07:14.456Z,4.83
2023-02-05T15:09:49.138Z,7.67
2023-02-05T15:12:44.300Z,6.40
2023-02-05T15:15:34.997Z,5.10
2023-02-05T15:18:16.246Z,5.73
2023-02-05T15:20:50.023Z,6.43
2023-02-05T15:23:30.180Z,8.47
2023-02-05T15:26:06.602Z,6.60
2023-02-05T15:28:41.669Z,8.73
2023-02-05T15:31:31.414Z,6.90
2023-02-05T15:34:07.069Z,3.83
2023-02-05T15:36:41.835Z,7.27
2023-02-05T15:39:21.684Z,6.17
2023-02-05T15:41:56.053Z,6.77
2023-02-05T15:44:31.744Z,7.83
2023-02-05T15:47:04.045Z,5.67
2023-02-05T15:49:45.839Z,9.80
2023-02-05T15:52:22.216Z,11.37
2023-02-05T15:54:53.204Z,13.70
2023-02-05T15:57:26.221Z,7.57
2023-02-05T15:59:59.046Z,8.70
2023-02-05T16:02:30.764Z,14.73
2023-02-05T16:05:02.785Z,18.10
2023-02-05T16:07:37.857Z,11.93
2023-02-05T16:10:19.939Z,9.40
2023-02-05T16:13:02.282Z,9.10
2023-02-05T16:15:36.965Z,11.70
2023-02-05T16:18:13.011Z,20.03
2023-02-05T16:20:45.653Z,11.03
2023-02-05T16:23:28.612Z,11.90
2023-02-05T16:26:01.870Z,9.77
2023-02-05T16:28:39.204Z,17.77
2023-02-05T16:31:16.534Z,16.47
2023-02-05T16:33:51.768Z,14.73
2023-02-05T16:36:24.302Z,18.07
2023-02-05T16:38:55.814Z,15.27
2023-02-05T16:41:27.758Z,18.43
2023-02-05T16:44:01.598Z,21.40
2023-02-05T16:46:32.160Z,25.87
2023-02-05T16:49:02.725Z,27.30
2023-02-05T16:51:38.325Z,33.80
2023-02-05T16:54:28.520Z,36.33
2023-02-05T16:57:02.735Z,30.23
2023-02-05T16:59:37.426Z,30.70
2023-02-05T17:02:07.611Z,25.53
2023-02-05T17:04:39.742Z,28.07
2023-02-05T17:07:23.675Z,30.20
2023-02-05T17:09:54.251Z,27.07
2023-02-05T17:12:38.858Z,28.87
2023-02-05T17:15:34.792Z,32.03
2023-02-05T17:18:23.497Z,31.67
2023-02-05T17:20:52.892Z,37.07
2023-02-05T17:23:23.496Z,36.20
2023-02-05T17:25:57.560Z,30.33
2023-02-05T17:28:30.609Z,31.73
2023-02-05T17:31:02.416Z,35.50
2023-02-05T17:33:37.472Z,36.47
2023-02-05T17:36:06.989Z,33.33
2023-02-05T17:38:35.970Z,29.17
2023-02-05T17:41:23.294Z,31.27
2023-02-05T17:43:55.943Z,32.77
2023-02-05T17:46:26.910Z,35.07
2023-02-05T17:48:56.043Z,34.30
2023-02-05T17:51:29.336Z,24.80
2023-02-05T17:53:59.425Z,39.70
2023-02-05T17:56:29.675Z,43.80
2023-02-05T17:58:58.837Z,37.13
2023-02-05T18:01:29.803Z,35.40
2023-02-05T18:03:59.213Z,36.07
2023-02-05T18:06:29.300Z,31.57
2023-02-05T18:09:00.748Z,42.37
2023-02-05T18:11:30.259Z,44.10
2023-02-05T18:13:59.857Z,33.47
2023-02-05T18:16:30.968Z,42.73
2023-02-05T18:19:00.622Z,43.10
2023-02-05T18:21:30.396Z,44.67
2023-02-05T18:24:00.811Z,45.23
2023-02-05T18:26:31.319Z,36.77
2023-02-05T18:29:00.740Z,38.23
2023-02-05T18:31:35.607Z,33.70
2023-02-05T18:34:05.001Z,33.13
2023-02-05T18:36:34.483Z,35.27
2023-02-05T18:39:04.022Z,36.73
2023-02-05T18:41:33.840Z,33.60
2023-02-05T18:44:04.279Z,34.70
2023-02-05T18:52:37.296Z,25.33
2023-02-05T19:13:36.928Z,34.00
2023-02-05T19:58:49.156Z,74.30
2023-02-05T20:01:23.937Z,82.47
2023-02-05T20:03:58.620Z,81.70
2023-02-05T20:06:30.411Z,79.77
2023-02-05T20:09:02.418Z,79.17
2023-02-05T20:11:32.021Z,80.27
2023-02-05T20:14:02.704Z,66.47
2023-02-05T20:16:31.431Z,66.63
2023-02-05T20:19:03.898Z,69.40
2023-02-05T20:21:33.429Z,62.07
2023-02-05T20:24:05.140Z,60.83
2023-02-05T20:26:34.265Z,59.13
2023-02-05T20:29:20.348Z,56.80
2023-02-05T20:31:53.108Z,72.67
2023-02-05T20:34:26.162Z,67.67
2023-02-05T20:36:56.495Z,69.13
2023-02-05T20:39:29.167Z,68.20
2023-02-05T20:42:00.665Z,71.93
2023-02-05T20:44:36.594Z,60.87
2023-02-05T20:47:07.752Z,60.70
2023-02-05T20:49:40.652Z,70.73
2023-02-05T20:52:11.296Z,62.83
2023-02-05T20:54:41.024Z,76.33
2023-02-05T20:57:11.091Z,66.93
2023-02-05T20:59:43.953Z,73.80
2023-02-05T21:02:14.285Z,72.30
2023-02-05T21:04:46.523Z,78.50
2023-02-05T21:07:15.863Z,90.90
2023-02-05T21:09:46.024Z,96.63
2023-02-05T21:12:17.044Z,81.23
2023-02-05T21:14:54.157Z,84.13
2023-02-05T21:17:23.232Z,82.80
2023-02-05T21:19:53.844Z,74.30
2023-02-05T21:22:41.904Z,68.63
2023-02-05T21:25:13.846Z,73.90
2023-02-05T21:27:43.804Z,63.87
2023-02-05T21:30:16.271Z,76.70
2023-02-05T21:32:45.663Z,67.20
2023-02-05T21:35:16.559Z,74.37
2023-02-05T21:37:45.649Z,77.43
2023-02-05T21:40:15.000Z,75.77
2023-02-05T21:42:44.722Z,91.63
2023-02-05T21:45:14.836Z,83.20
2023-02-05T21:47:44.799Z,100.10
2023-02-05T21:50:13.916Z,90.23
2023-02-05T21:52:45.800Z,74.60
2023-02-05T21:55:14.849Z,87.00
2023-02-05T21:57:44.355Z,94.03
2023-02-05T22:00:14.480Z,76.93
2023-02-05T22:02:43.742Z,86.63
2023-02-05T22:05:13.587Z,94.83
2023-02-05T22:07:48.998Z,86.40
2023-02-05T22:10:18.497Z,75.60
2023-02-05T22:12:47.479Z,80.50
2023-02-05T22:15:17.280Z,87.00
2023-02-05T22:17:46.298Z,87.90
2023-02-05T22:20:15.489Z,92.17
2023-02-05T22:22:46.000Z,91.77
2023-02-05T22:25:14.964Z,83.27
2023-02-05T22:27:45.556Z,98.27
2023-02-05T22:30:15.563Z,85.37
2023-02-05T22:32:44.753Z,82.20
2023-02-05T22:35:13.588Z,73.67
2023-02-05T22:37:42.635Z,78.07
2023-02-05T22:40:14.519Z,75.17
2023-02-05T22:42:43.407Z,82.27
2023-02-05T22:45:12.550Z,67.10
2023-02-05T22:47:43.005Z,77.27
2023-02-05T22:50:12.436Z,75.50
2023-02-05T22:52:41.842Z,82.03
2023-02-05T22:55:10.729Z,96.60
2023-02-05T22:57:41.147Z,93.43
2023-02-05T23:00:11.420Z,111.37
2023-02-05T23:02:40.641Z,112.17
2023-02-05T23:05:10.636Z,100.73
2023-02-05T23:07:40.217Z,97.03
2023-02-05T23:10:09.820Z,99.47
2023-02-05T23:12:38.812Z,91.60
2023-02-05T23:15:10.681Z,88.57
2023-02-05T23:17:42.357Z,90.10
2023-02-05T23:20:12.713Z,95.37
2023-02-05T23:22:42.002Z,88.93
2023-02-05T23:25:12.188Z,91.00
2023-02-05T23:27:42.207Z,103.57
2023-02-05T23:30:15.037Z,108.70
2023-02-05T23:32:44.052Z,108.67
2023-02-05T23:35:13.375Z,115.87
2023-02-05T23:37:43.321Z,105.30
2023-02-05T23:40:13.495Z,110.40
2023-02-05T23:42:42.449Z,100.93
2023-02-05T23:45:13.991Z,105.53
2023-02-05T23:47:43.466Z,105.10
2023-02-05T23:50:12.376Z,108.23
2023-02-05T23:52:41.862Z,104.73
2023-02-05T23:55:10.988Z,102.10
2023-02-05T23:57:40.039Z,122.73
